createdAt,value
2016-07-25T00:00:35.635Z,24.98
2016-07-25T00:01:36.377Z,25.01
2016-07-25T00:02:36.410Z,25.06
2016-07-25T00:03:35.738Z,25.07
2016-07-25T00:04:35.762Z,25.13
2016-07-25T00:05:36.501Z,24.92
2016-07-25T00:06:35.820Z,25.07
2016-07-25T00:07:35.853Z,25.03
2016-07-25T00:08:35.885Z,25.1
2016-07-25T00:09:37.334Z,24.99
2016-07-25T00:10:35.946Z,25.07
2016-07-25T00:11:36.687Z,25.14
2016-07-25T00:12:36.003Z,25.03
2016-07-25T00:13:36.034Z,24.98
2016-07-25T00:14:36.065Z,24.96
2016-07-25T00:15:36.096Z,24.89
2016-07-25T00:16:36.128Z,24.88
2016-07-25T00:17:36.157Z,25.01
2016-07-25T00:18:36.203Z,25.04
2016-07-25T00:19:36.218Z,25.01
2016-07-25T00:20:36.245Z,24.92
2016-07-25T00:21:36.280Z,24.99
2016-07-25T00:22:37.020Z,25.01
2016-07-25T00:23:36.341Z,24.95
2016-07-25T00:24:36.373Z,24.93
2016-07-25T00:25:36.411Z,24.91
2016-07-25T00:26:37.151Z,24.93
2016-07-25T00:27:36.467Z,24.93
2016-07-25T00:28:36.494Z,24.92
2016-07-25T00:29:36.527Z,24.92
2016-07-25T00:30:37.275Z,24.91
2016-07-25T00:31:36.596Z,24.91
2016-07-25T00:32:36.619Z,24.88
2016-07-25T00:33:36.649Z,24.78
2016-07-25T00:34:36.683Z,24.84
2016-07-25T00:35:37.419Z,24.85
2016-07-25T00:36:36.745Z,24.81
2016-07-25T00:37:37.479Z,24.78
2016-07-25T00:38:36.802Z,24.84
2016-07-25T00:39:37.540Z,24.77
2016-07-25T00:40:36.861Z,24.78
2016-07-25T00:41:36.894Z,24.7
2016-07-25T00:42:36.939Z,24.68
2016-07-25T00:43:36.954Z,24.76
2016-07-25T00:44:36.983Z,24.76
2016-07-25T00:45:37.012Z,24.74
2016-07-25T00:46:37.047Z,24.69
2016-07-25T00:47:37.786Z,24.73
2016-07-25T00:48:37.106Z,24.68
2016-07-25T00:49:37.864Z,24.63
2016-07-25T00:50:37.177Z,24.7
2016-07-25T00:51:37.196Z,24.68
2016-07-25T00:52:37.237Z,24.65
2016-07-25T00:53:37.256Z,24.65
2016-07-25T00:54:37.336Z,24.65
2016-07-25T00:55:38.028Z,24.6
2016-07-25T00:56:37.347Z,24.65
2016-07-25T00:57:37.388Z,24.66
2016-07-25T00:58:37.439Z,24.65
2016-07-25T00:59:37.443Z,24.69
2016-07-25T01:00:37.473Z,24.66
2016-07-25T01:01:37.502Z,24.68
2016-07-25T01:02:37.532Z,24.65
2016-07-25T01:03:37.559Z,24.68
2016-07-25T01:04:38.316Z,24.77
2016-07-25T01:05:37.623Z,24.76
2016-07-25T01:06:37.653Z,24.68
2016-07-25T01:07:37.685Z,24.74
2016-07-25T01:08:38.423Z,24.7
2016-07-25T01:09:37.765Z,24.78
2016-07-25T01:10:37.775Z,24.69
2016-07-25T01:11:38.515Z,24.68
2016-07-25T01:12:37.836Z,24.73
2016-07-25T01:13:37.865Z,24.66
2016-07-25T01:14:37.897Z,24.57
2016-07-25T01:15:37.928Z,24.6
2016-07-25T01:16:37.971Z,24.6
2016-07-25T01:17:38.701Z,24.55
2016-07-25T01:18:38.017Z,24.6
2016-07-25T01:19:38.049Z,24.55
2016-07-25T01:20:38.102Z,24.54
2016-07-25T01:21:38.113Z,24.57
2016-07-25T01:22:38.140Z,24.6
2016-07-25T01:23:38.178Z,24.53
2016-07-25T01:24:38.201Z,24.58
2016-07-25T01:25:38.228Z,24.53
2016-07-25T01:26:38.262Z,24.63
2016-07-25T01:27:39.009Z,24.51
2016-07-25T01:28:38.321Z,24.68
2016-07-25T01:29:38.350Z,24.66
2016-07-25T01:30:38.383Z,24.55
2016-07-25T01:31:38.410Z,24.63
2016-07-25T01:32:38.465Z,24.5
2016-07-25T01:33:38.474Z,24.55
2016-07-25T01:34:38.504Z,24.51
2016-07-25T01:35:38.540Z,24.6
2016-07-25T01:36:38.563Z,24.54
2016-07-25T01:37:38.594Z,24.5
2016-07-25T01:38:38.624Z,24.51
2016-07-25T01:39:38.670Z,24.4
2016-07-25T01:40:38.697Z,24.5
2016-07-25T01:41:38.713Z,24.48
2016-07-25T01:42:38.746Z,24.51
2016-07-25T01:43:38.787Z,24.51
2016-07-25T01:44:38.803Z,24.5
2016-07-25T01:45:39.546Z,24.54
2016-07-25T01:46:38.866Z,24.57
2016-07-25T01:47:38.901Z,24.55
2016-07-25T01:48:38.923Z,24.51
2016-07-25T01:49:39.668Z,24.5
2016-07-25T01:50:39.003Z,24.58
2016-07-25T01:51:39.018Z,24.53
2016-07-25T01:52:39.049Z,24.53
2016-07-25T01:53:39.077Z,24.47
2016-07-25T01:54:39.163Z,24.5
2016-07-25T01:55:39.236Z,24.5
2016-07-25T01:56:39.882Z,24.51
2016-07-25T01:57:39.209Z,24.47
2016-07-25T01:58:39.941Z,24.51
2016-07-25T01:59:39.258Z,24.51
2016-07-25T02:00:39.291Z,24.51
2016-07-25T02:01:39.317Z,24.51
2016-07-25T02:02:39.356Z,24.51
2016-07-25T02:03:39.380Z,24.5
2016-07-25T02:04:39.414Z,24.5
2016-07-25T02:05:39.441Z,24.42
2016-07-25T02:06:39.472Z,24.48
2016-07-25T02:07:40.210Z,24.48
2016-07-25T02:08:40.245Z,24.47
2016-07-25T02:09:39.561Z,24.54
2016-07-25T02:10:39.591Z,24.47
2016-07-25T02:11:39.624Z,24.51
2016-07-25T02:12:39.665Z,24.43
2016-07-25T02:13:40.509Z,24.5
2016-07-25T02:14:39.715Z,24.47
2016-07-25T02:15:39.742Z,24.48
2016-07-25T02:16:39.775Z,24.43
2016-07-25T02:17:39.805Z,24.55
2016-07-25T02:18:39.835Z,24.42
2016-07-25T02:19:39.867Z,24.5
2016-07-25T02:20:39.910Z,24.48
2016-07-25T02:21:39.927Z,24.47
2016-07-25T02:22:39.973Z,24.4
2016-07-25T02:23:39.986Z,24.33
2016-07-25T02:24:40.018Z,24.47
2016-07-25T02:25:40.046Z,24.42
2016-07-25T02:26:40.079Z,24.42
2016-07-25T02:27:40.110Z,24.42
2016-07-25T02:28:40.141Z,24.47
2016-07-25T02:29:40.165Z,24.42
2016-07-25T02:30:40.909Z,24.43
2016-07-25T02:31:40.242Z,24.4
2016-07-25T02:32:40.968Z,24.43
2016-07-25T02:33:40.288Z,24.47
2016-07-25T02:34:40.320Z,24.48
2016-07-25T02:35:40.348Z,24.42
2016-07-25T02:36:40.381Z,24.54
2016-07-25T02:37:41.128Z,24.45
2016-07-25T02:38:40.448Z,24.51
2016-07-25T02:39:40.471Z,24.53
2016-07-25T02:40:40.512Z,24.43
2016-07-25T02:41:40.568Z,24.48
2016-07-25T02:42:40.576Z,24.48
2016-07-25T02:43:41.378Z,24.51
2016-07-25T02:44:40.627Z,24.45
2016-07-25T02:45:40.658Z,24.4
2016-07-25T02:46:40.685Z,24.48
2016-07-25T02:47:42.915Z,24.4
2016-07-25T02:48:40.744Z,24.39
2016-07-25T02:49:40.781Z,24.43
2016-07-25T02:50:40.807Z,24.39
2016-07-25T02:51:41.547Z,24.42
2016-07-25T02:52:40.868Z,24.5
2016-07-25T02:53:40.898Z,24.45
2016-07-25T02:54:41.766Z,24.4
2016-07-25T02:55:40.959Z,24.42
2016-07-25T02:56:40.988Z,24.48
2016-07-25T02:57:41.019Z,24.4
2016-07-25T02:58:41.810Z,24.4
2016-07-25T02:59:41.082Z,24.42
2016-07-25T03:00:41.107Z,24.43
2016-07-25T03:01:41.150Z,24.42
2016-07-25T03:02:41.877Z,24.43
2016-07-25T03:03:41.252Z,24.48
2016-07-25T03:04:42.051Z,24.4
2016-07-25T03:05:41.259Z,24.38
2016-07-25T03:06:41.292Z,24.4
2016-07-25T03:07:41.321Z,24.36
2016-07-25T03:08:41.526Z,24.35
2016-07-25T03:09:41.381Z,24.4
2016-07-25T03:10:41.413Z,24.43
2016-07-25T03:11:41.538Z,24.42
2016-07-25T03:12:42.184Z,24.35
2016-07-25T03:13:41.503Z,24.39
2016-07-25T03:14:41.535Z,24.29
2016-07-25T03:15:42.417Z,24.38
2016-07-25T03:16:41.591Z,24.32
2016-07-25T03:17:43.046Z,24.32
2016-07-25T03:18:41.674Z,24.26
2016-07-25T03:19:41.806Z,24.35
2016-07-25T03:20:41.724Z,24.4
2016-07-25T03:21:42.458Z,24.33
2016-07-25T03:22:41.773Z,24.4
2016-07-25T03:23:41.804Z,24.28
2016-07-25T03:24:41.832Z,24.33
2016-07-25T03:25:41.865Z,24.33
2016-07-25T03:26:41.896Z,24.3
2016-07-25T03:27:41.926Z,24.24
2016-07-25T03:28:42.041Z,24.32
2016-07-25T03:29:41.987Z,24.24
2016-07-25T03:30:42.071Z,24.32
2016-07-25T03:31:42.203Z,24.28
2016-07-25T03:32:43.210Z,24.35
2016-07-25T03:33:42.119Z,24.3
2016-07-25T03:34:42.164Z,24.35
2016-07-25T03:35:42.179Z,24.32
2016-07-25T03:36:42.196Z,24.35
2016-07-25T03:37:42.935Z,24.32
2016-07-25T03:38:42.965Z,24.3
2016-07-25T03:39:42.284Z,24.3
2016-07-25T03:40:42.314Z,24.35
2016-07-25T03:41:42.347Z,24.28
2016-07-25T03:42:42.385Z,24.23
2016-07-25T03:43:42.411Z,24.24
2016-07-25T03:44:43.147Z,24.24
2016-07-25T03:45:42.466Z,24.28
2016-07-25T03:46:43.208Z,24.28
2016-07-25T03:47:42.542Z,24.28
2016-07-25T03:48:42.557Z,24.29
2016-07-25T03:49:42.589Z,24.36
2016-07-25T03:50:42.624Z,24.32
2016-07-25T03:51:42.678Z,24.29
2016-07-25T03:52:42.682Z,24.33
2016-07-25T03:53:42.718Z,24.3
2016-07-25T03:54:42.740Z,24.3
2016-07-25T03:55:42.767Z,24.33
2016-07-25T03:56:42.798Z,24.35
2016-07-25T03:57:42.828Z,24.3
2016-07-25T03:58:42.864Z,24.26
2016-07-25T03:59:42.889Z,24.29
2016-07-25T04:00:42.924Z,24.32
2016-07-25T04:01:42.950Z,24.4
2016-07-25T04:02:42.981Z,24.3
2016-07-25T04:03:43.013Z,24.32
2016-07-25T04:04:43.750Z,24.39
2016-07-25T04:05:43.068Z,24.36
2016-07-25T04:06:43.111Z,24.42
2016-07-25T04:07:43.182Z,24.28
2016-07-25T04:08:44.912Z,24.26
2016-07-25T04:09:44.506Z,24.3
2016-07-25T04:10:43.221Z,24.4
2016-07-25T04:11:43.252Z,24.32
2016-07-25T04:12:44.000Z,24.32
2016-07-25T04:13:43.324Z,24.33
2016-07-25T04:14:44.052Z,24.3
2016-07-25T04:15:44.088Z,24.35
2016-07-25T04:16:43.416Z,24.33
2016-07-25T04:17:44.145Z,24.35
2016-07-25T04:18:43.467Z,24.3
2016-07-25T04:19:43.495Z,24.33
2016-07-25T04:20:43.536Z,24.29
2016-07-25T04:21:43.719Z,24.35
2016-07-25T04:22:43.608Z,24.3
2016-07-25T04:23:43.624Z,24.35
2016-07-25T04:24:45.062Z,24.3
2016-07-25T04:25:43.676Z,24.32
2016-07-25T04:26:43.706Z,24.26
2016-07-25T04:27:43.732Z,24.3
2016-07-25T04:28:43.908Z,24.26
2016-07-25T04:29:43.797Z,24.42
2016-07-25T04:30:43.827Z,24.36
2016-07-25T04:31:43.855Z,24.29
2016-07-25T04:32:43.887Z,24.3
2016-07-25T04:33:44.623Z,24.3
2016-07-25T04:34:43.958Z,24.33
2016-07-25T04:35:43.974Z,24.33
2016-07-25T04:36:44.729Z,24.29
2016-07-25T04:37:44.043Z,24.29
2016-07-25T04:38:44.118Z,24.4
2016-07-25T04:39:44.812Z,24.38
2016-07-25T04:40:44.844Z,24.4
2016-07-25T04:41:44.162Z,24.42
2016-07-25T04:42:44.194Z,24.42
2016-07-25T04:43:44.936Z,24.45
2016-07-25T04:44:44.955Z,24.42
2016-07-25T04:45:44.280Z,24.48
2016-07-25T04:46:44.312Z,24.5
2016-07-25T04:47:44.415Z,24.5
2016-07-25T04:48:44.552Z,24.47
2016-07-25T04:49:44.402Z,24.51
2016-07-25T04:50:44.450Z,24.43
2016-07-25T04:51:44.459Z,24.42
2016-07-25T04:52:44.487Z,24.54
2016-07-25T04:53:45.233Z,24.42
2016-07-25T04:54:44.548Z,24.39
2016-07-25T04:55:44.586Z,24.53
2016-07-25T04:56:45.326Z,24.43
2016-07-25T04:57:44.664Z,24.54
2016-07-25T04:58:44.671Z,24.48
2016-07-25T04:59:44.707Z,24.58
2016-07-25T05:00:44.732Z,24.43
2016-07-25T05:01:44.827Z,24.5
2016-07-25T05:02:44.793Z,24.54
2016-07-25T05:03:44.824Z,24.55
2016-07-25T05:04:44.862Z,24.63
2016-07-25T05:05:44.889Z,24.53
2016-07-25T05:06:44.915Z,24.6
2016-07-25T05:07:44.945Z,24.58
2016-07-25T05:08:44.975Z,24.54
2016-07-25T05:09:45.008Z,24.51
2016-07-25T05:10:45.034Z,24.55
2016-07-25T05:11:45.066Z,24.63
2016-07-25T05:12:45.095Z,24.61
2016-07-25T05:13:45.126Z,24.63
2016-07-25T05:14:45.865Z,24.6
2016-07-25T05:15:45.915Z,24.68
2016-07-25T05:16:45.213Z,24.69
2016-07-25T05:17:45.256Z,24.65
2016-07-25T05:18:45.275Z,24.74
2016-07-25T05:19:45.307Z,24.66
2016-07-25T05:20:46.048Z,24.61
2016-07-25T05:21:45.368Z,24.68
2016-07-25T05:22:45.402Z,24.73
2016-07-25T05:23:46.142Z,24.65
2016-07-25T05:24:45.456Z,24.74
2016-07-25T05:25:45.487Z,24.65
2016-07-25T05:26:45.518Z,24.7
2016-07-25T05:27:45.546Z,24.68
2016-07-25T05:28:45.577Z,24.68
2016-07-25T05:29:45.610Z,24.66
2016-07-25T05:30:45.641Z,24.76
2016-07-25T05:31:45.690Z,24.76
2016-07-25T05:32:45.705Z,24.66
2016-07-25T05:33:45.731Z,24.68
2016-07-25T05:34:45.762Z,24.69
2016-07-25T05:35:45.791Z,24.65
2016-07-25T05:36:45.824Z,24.76
2016-07-25T05:37:48.141Z,24.68
2016-07-25T05:38:47.565Z,24.65
2016-07-25T05:39:45.935Z,24.78
2016-07-25T05:40:46.039Z,24.73
2016-07-25T05:41:45.995Z,24.77
2016-07-25T05:42:46.148Z,24.77
2016-07-25T05:43:46.854Z,24.69
2016-07-25T05:44:46.776Z,24.69
2016-07-25T05:45:46.822Z,24.73
2016-07-25T05:46:46.128Z,24.74
2016-07-25T05:47:46.156Z,24.74
2016-07-25T05:48:46.189Z,24.76
2016-07-25T05:49:46.229Z,24.69
2016-07-25T05:50:46.958Z,24.76
2016-07-25T05:51:46.280Z,24.81
2016-07-25T05:52:47.021Z,24.8
2016-07-25T05:53:46.352Z,24.8
2016-07-25T05:54:46.373Z,24.76
2016-07-25T05:55:46.425Z,24.68
2016-07-25T05:56:46.436Z,24.74
2016-07-25T05:57:46.463Z,24.73
2016-07-25T05:58:46.492Z,24.76
2016-07-25T05:59:46.525Z,24.78
2016-07-25T06:00:46.551Z,24.85
2016-07-25T06:01:46.584Z,24.74
2016-07-25T06:02:46.629Z,24.73
2016-07-25T06:03:47.353Z,24.7
2016-07-25T06:04:46.675Z,24.7
2016-07-25T06:05:46.705Z,24.7
2016-07-25T06:06:46.735Z,24.77
2016-07-25T06:07:46.765Z,24.68
2016-07-25T06:08:46.795Z,24.61
2016-07-25T06:09:47.543Z,24.69
2016-07-25T06:10:46.863Z,24.68
2016-07-25T06:11:46.889Z,24.6
2016-07-25T06:12:46.929Z,24.65
2016-07-25T06:13:47.658Z,24.57
2016-07-25T06:14:46.978Z,24.6
2016-07-25T06:15:47.724Z,24.61
2016-07-25T06:16:47.039Z,24.65
2016-07-25T06:17:47.072Z,24.55
2016-07-25T06:18:47.815Z,24.6
2016-07-25T06:19:47.137Z,24.53
2016-07-25T06:20:47.166Z,24.51
2016-07-25T06:21:47.193Z,24.57
2016-07-25T06:22:47.223Z,24.51
2016-07-25T06:23:47.255Z,24.48
2016-07-25T06:24:47.285Z,24.54
2016-07-25T06:25:47.327Z,24.5
2016-07-25T06:26:47.343Z,24.43
2016-07-25T06:27:47.374Z,24.4
2016-07-25T06:28:47.405Z,24.24
2016-07-25T06:29:47.456Z,24.38
2016-07-25T06:30:47.466Z,24.3
2016-07-25T06:31:48.207Z,24.29
2016-07-25T06:33:47.559Z,24.33
2016-07-25T06:34:47.597Z,24.3
2016-07-25T06:35:47.628Z,24.32
2016-07-25T06:36:47.663Z,24.3
2016-07-25T06:37:48.386Z,24.39
2016-07-25T06:38:47.707Z,24.32
2016-07-25T06:39:49.164Z,24.29
2016-07-25T06:40:47.765Z,24.28
2016-07-25T06:41:48.517Z,24.35
2016-07-25T06:42:47.827Z,24.29
2016-07-25T06:43:47.870Z,24.33
2016-07-25T06:44:47.887Z,24.39
2016-07-25T06:45:47.917Z,24.4
2016-07-25T06:46:47.952Z,24.39
2016-07-25T06:47:47.980Z,24.33
2016-07-25T06:48:48.009Z,24.29
2016-07-25T06:49:48.750Z,24.3
2016-07-25T06:50:48.074Z,24.29
2016-07-25T06:51:48.102Z,24.29
2016-07-25T06:52:48.128Z,24.32
2016-07-25T06:53:48.168Z,24.28
2016-07-25T06:54:48.190Z,24.3
2016-07-25T06:55:48.265Z,24.3
2016-07-25T06:56:48.967Z,24.28
2016-07-25T06:57:48.279Z,24.28
2016-07-25T06:58:48.329Z,24.32
2016-07-25T06:59:48.364Z,24.29
2016-07-25T07:00:49.079Z,24.32
2016-07-25T07:01:48.399Z,24.3
2016-07-25T07:02:48.429Z,24.32
2016-07-25T07:03:48.461Z,24.32
2016-07-25T07:04:48.492Z,24.29
2016-07-25T07:05:48.528Z,24.33
2016-07-25T07:06:49.268Z,24.26
2016-07-25T07:07:48.583Z,24.32
2016-07-25T07:08:48.613Z,24.29
2016-07-25T07:09:48.646Z,24.32
2016-07-25T07:10:48.671Z,24.39
2016-07-25T07:11:48.702Z,24.42
2016-07-25T07:12:48.732Z,24.43
2016-07-25T07:13:49.470Z,24.38
2016-07-25T07:14:49.505Z,24.5
2016-07-25T07:15:48.821Z,24.48
2016-07-25T07:16:49.563Z,24.43
2016-07-25T07:17:48.907Z,24.55
2016-07-25T07:18:48.914Z,24.58
2016-07-25T07:19:48.944Z,24.58
2016-07-25T07:20:48.977Z,24.57
2016-07-25T07:21:49.002Z,24.51
2016-07-25T07:22:49.043Z,24.55
2016-07-25T07:23:49.076Z,24.5
2016-07-25T07:24:49.108Z,24.53
2016-07-25T07:25:49.128Z,24.65
2016-07-25T07:26:49.157Z,24.65
2016-07-25T07:27:49.187Z,24.68
2016-07-25T07:28:49.217Z,24.66
2016-07-25T07:29:49.246Z,24.74
2016-07-25T07:30:50.001Z,24.65
2016-07-25T07:31:49.307Z,24.66
2016-07-25T07:32:50.050Z,24.69
2016-07-25T07:33:49.368Z,24.65
2016-07-25T07:34:49.408Z,24.68
2016-07-25T07:35:50.143Z,24.76
2016-07-25T07:36:49.460Z,24.76
2016-07-25T07:37:49.498Z,24.78
2016-07-25T07:38:49.519Z,24.8
2016-07-25T07:39:49.551Z,24.73
2016-07-25T07:40:49.599Z,24.84
2016-07-25T07:41:49.615Z,24.77
2016-07-25T07:42:49.644Z,24.76
2016-07-25T07:43:49.671Z,24.76
2016-07-25T07:44:49.704Z,24.77
2016-07-25T07:45:49.731Z,24.84
2016-07-25T07:46:49.770Z,24.81
2016-07-25T07:47:50.499Z,24.86
2016-07-25T07:48:49.825Z,24.84
2016-07-25T07:49:49.855Z,24.81
2016-07-25T07:50:49.887Z,24.78
2016-07-25T07:51:49.936Z,24.95
2016-07-25T07:52:50.656Z,24.84
2016-07-25T07:53:49.978Z,24.88
2016-07-25T07:54:50.056Z,24.88
2016-07-25T07:55:50.037Z,24.85
2016-07-25T07:56:50.068Z,24.88
2016-07-25T07:57:50.098Z,24.85
2016-07-25T07:58:50.856Z,24.86
2016-07-25T07:59:50.169Z,24.81
2016-07-25T08:00:50.900Z,24.84
2016-07-25T08:01:50.221Z,24.89
2016-07-25T08:02:50.251Z,24.95
2016-07-25T08:03:50.290Z,24.81
2016-07-25T08:05:50.346Z,24.84
2016-07-25T08:06:50.373Z,24.91
2016-07-25T08:07:50.400Z,24.93
2016-07-25T08:08:50.431Z,24.93
2016-07-25T08:09:50.465Z,24.86
2016-07-25T08:10:50.497Z,24.88
2016-07-25T08:11:50.525Z,24.86
2016-07-25T08:12:51.273Z,24.86
2016-07-25T08:13:50.585Z,24.84
2016-07-25T08:14:50.636Z,24.8
2016-07-25T08:15:50.648Z,24.7
2016-07-25T08:16:50.677Z,24.69
2016-07-25T08:17:50.712Z,24.65
2016-07-25T08:18:50.791Z,24.65
2016-07-25T08:19:50.771Z,24.73
2016-07-25T08:20:50.802Z,24.57
2016-07-25T08:21:50.844Z,24.55
2016-07-25T08:22:50.860Z,24.61
2016-07-25T08:23:50.915Z,24.53
2016-07-25T08:24:51.768Z,24.61
2016-07-25T08:25:50.949Z,24.54
2016-07-25T08:26:50.978Z,24.53
2016-07-25T08:27:51.011Z,24.43
2016-07-25T08:28:51.042Z,24.5
2016-07-25T08:29:51.077Z,24.51
2016-07-25T08:30:51.117Z,24.54
2016-07-25T08:31:51.129Z,24.53
2016-07-25T08:32:51.173Z,24.36
2016-07-25T08:33:51.192Z,24.45
2016-07-25T08:34:51.225Z,24.43
2016-07-25T08:35:51.278Z,24.42
2016-07-25T08:36:51.990Z,24.33
2016-07-25T08:37:51.313Z,24.28
2016-07-25T08:38:51.341Z,24.32
2016-07-25T08:39:51.381Z,24.33
2016-07-25T08:40:51.403Z,24.26
2016-07-25T08:41:51.428Z,24.2
2016-07-25T08:42:51.463Z,24.11
2016-07-25T08:43:51.491Z,24.2
2016-07-25T08:44:51.521Z,24.16
2016-07-25T08:45:51.552Z,24.13
2016-07-25T08:46:51.589Z,24.18
2016-07-25T08:47:51.616Z,24.18
2016-07-25T08:48:52.351Z,24.18
2016-07-25T08:49:51.670Z,24.1
2016-07-25T08:50:51.700Z,24.08
2016-07-25T08:51:51.729Z,24.01
2016-07-25T08:52:51.767Z,23.99
2016-07-25T08:53:51.816Z,24.03
2016-07-25T08:54:51.822Z,24.03
2016-07-25T08:55:51.884Z,24.01
2016-07-25T08:56:51.884Z,24.02
2016-07-25T08:57:51.911Z,24.06
2016-07-25T08:58:51.939Z,23.99
2016-07-25T08:59:51.973Z,23.99
2016-07-25T09:00:52.000Z,23.98
2016-07-25T09:01:52.033Z,24.06
2016-07-25T09:02:52.078Z,24.02
2016-07-25T09:03:52.951Z,24.01
2016-07-25T09:04:52.131Z,23.99
2016-07-25T09:05:52.167Z,24.01
2016-07-25T09:06:52.908Z,23.98
2016-07-25T09:07:52.211Z,23.96
2016-07-25T09:08:52.237Z,23.93
2016-07-25T09:09:52.269Z,23.95
2016-07-25T09:10:53.716Z,23.86
2016-07-25T09:11:53.040Z,23.92
2016-07-25T09:12:52.356Z,24.02
2016-07-25T09:13:52.411Z,24.02
2016-07-25T09:14:53.126Z,23.92
2016-07-25T09:15:52.450Z,23.98
2016-07-25T09:16:52.479Z,23.98
2016-07-25T09:17:53.227Z,24.02
2016-07-25T09:18:52.536Z,24.05
2016-07-25T09:19:52.570Z,23.98
2016-07-25T09:20:52.618Z,23.93
2016-07-25T09:21:52.632Z,23.93
2016-07-25T09:22:53.370Z,23.87
2016-07-25T09:23:52.684Z,23.84
2016-07-25T09:24:52.716Z,23.84
2016-07-25T09:25:53.454Z,23.87
2016-07-25T09:26:52.777Z,23.87
2016-07-25T09:27:52.824Z,23.86
2016-07-25T09:28:52.838Z,23.83
2016-07-25T09:29:52.869Z,23.87
2016-07-25T09:30:52.906Z,23.68
2016-07-25T09:31:52.926Z,23.68
2016-07-25T09:32:52.956Z,23.71
2016-07-25T09:33:52.993Z,23.74
2016-07-25T09:34:54.436Z,23.8
2016-07-25T09:35:53.050Z,23.83
2016-07-25T09:36:53.076Z,23.81
2016-07-25T09:37:53.123Z,23.76
2016-07-25T09:38:53.138Z,23.76
2016-07-25T09:39:53.182Z,23.76
2016-07-25T09:40:53.194Z,23.68
2016-07-25T09:41:53.227Z,23.77
2016-07-25T09:42:53.265Z,23.87
2016-07-25T09:43:53.288Z,23.88
2016-07-25T09:44:53.329Z,23.98
2016-07-25T09:45:54.065Z,23.93
2016-07-25T09:46:54.084Z,23.96
2016-07-25T09:47:53.406Z,23.91
2016-07-25T09:48:53.439Z,23.93
2016-07-25T09:49:53.467Z,24.01
2016-07-25T09:50:53.494Z,24.05
2016-07-25T09:51:53.534Z,24.13
2016-07-25T09:52:54.279Z,24.1
2016-07-25T09:53:54.297Z,24.2
2016-07-25T09:54:53.618Z,24.16
2016-07-25T09:55:53.646Z,24.2
2016-07-25T09:56:53.676Z,24.26
2016-07-25T09:57:53.704Z,24.32
2016-07-25T09:58:53.738Z,24.32
2016-07-25T09:59:53.774Z,24.3
2016-07-25T10:00:54.507Z,24.39
2016-07-25T10:01:53.842Z,24.33
2016-07-25T10:02:53.867Z,24.42
2016-07-25T10:03:53.887Z,24.48
2016-07-25T10:04:53.917Z,24.53
2016-07-25T10:05:53.944Z,24.61
2016-07-25T10:06:53.985Z,24.7
2016-07-25T10:07:54.007Z,24.63
2016-07-25T10:08:54.044Z,24.7
2016-07-25T10:09:54.073Z,24.66
2016-07-25T10:10:54.099Z,24.74
2016-07-25T10:11:54.130Z,24.77
2016-07-25T10:12:54.159Z,24.84
2016-07-25T10:13:54.189Z,24.84
2016-07-25T10:14:54.221Z,24.86
2016-07-25T10:15:54.365Z,24.89
2016-07-25T10:16:54.282Z,24.93
2016-07-25T10:17:55.019Z,25.11
2016-07-25T10:18:54.361Z,25.13
2016-07-25T10:19:55.082Z,25.17
2016-07-25T10:20:54.405Z,25.21
2016-07-25T10:21:54.435Z,25.35
2016-07-25T10:22:54.466Z,25.46
2016-07-25T10:23:54.491Z,25.35
2016-07-25T10:24:54.524Z,25.36
2016-07-25T10:25:54.572Z,25.4
2016-07-25T10:26:54.590Z,25.38
2016-07-25T10:27:54.620Z,25.4
2016-07-25T10:28:54.657Z,25.4
2016-07-25T10:29:54.690Z,25.53
2016-07-25T10:30:55.423Z,25.59
2016-07-25T10:31:54.743Z,25.68
2016-07-25T10:32:54.773Z,25.69
2016-07-25T10:33:55.517Z,25.84
2016-07-25T10:34:55.039Z,25.84
2016-07-25T10:35:54.888Z,25.81
2016-07-25T10:36:54.904Z,25.99
2016-07-25T10:37:54.931Z,25.96
2016-07-25T10:38:55.672Z,25.95
2016-07-25T10:39:54.991Z,25.99
2016-07-25T10:40:55.028Z,25.96
2016-07-25T10:41:55.135Z,26.02
2016-07-25T10:42:55.096Z,26.07
2016-07-25T10:43:55.133Z,26.13
2016-07-25T10:44:55.149Z,26.23
2016-07-25T10:45:55.184Z,26.29
2016-07-25T10:46:55.214Z,26.23
2016-07-25T10:47:55.248Z,26.13
2016-07-25T10:48:55.288Z,26.13
2016-07-25T10:49:55.313Z,26.09
2016-07-25T10:50:55.345Z,25.99
2016-07-25T10:51:55.381Z,25.95
2016-07-25T10:52:56.115Z,26.02
2016-07-25T10:53:55.435Z,26.1
2016-07-25T10:54:56.178Z,26.07
2016-07-25T10:55:55.497Z,26.06
2016-07-25T10:56:56.236Z,26.05
2016-07-25T10:57:55.582Z,26.1
2016-07-25T10:58:55.592Z,26.21
2016-07-25T10:59:55.625Z,26.23
2016-07-25T11:00:55.656Z,26.28
2016-07-25T11:01:55.684Z,26.26
2016-07-25T11:02:55.720Z,26.33
2016-07-25T11:03:56.462Z,26.34
2016-07-25T11:04:55.782Z,26.38
2016-07-25T11:05:55.812Z,26.48
2016-07-25T11:06:56.556Z,26.52
2016-07-25T11:07:55.899Z,26.56
2016-07-25T11:08:55.908Z,26.58
2016-07-25T11:09:55.942Z,26.48
2016-07-25T11:10:55.971Z,26.59
2016-07-25T11:11:56.715Z,26.47
2016-07-25T11:12:56.034Z,26.43
2016-07-25T11:13:56.067Z,26.44
2016-07-25T11:14:56.102Z,26.44
2016-07-25T11:15:56.139Z,26.47
2016-07-25T11:16:56.186Z,26.56
2016-07-25T11:17:56.192Z,26.6
2016-07-25T11:18:56.937Z,26.6
2016-07-25T11:19:56.259Z,26.63
2016-07-25T11:20:56.291Z,26.62
2016-07-25T11:21:56.318Z,26.59
2016-07-25T11:22:56.353Z,26.63
2016-07-25T11:23:56.393Z,26.62
2016-07-25T11:24:56.419Z,26.66
2016-07-25T11:25:56.450Z,26.84
2016-07-25T11:26:56.478Z,26.88
2016-07-25T11:27:56.514Z,26.93
2016-07-25T11:28:56.546Z,26.93
2016-07-25T11:29:56.579Z,26.9
2016-07-25T11:30:56.615Z,26.95
2016-07-25T11:31:56.638Z,26.9
2016-07-25T11:32:56.673Z,26.92
2016-07-25T11:33:56.711Z,27.1
2016-07-25T11:34:56.736Z,27.05
2016-07-25T11:35:56.772Z,27.17
2016-07-25T11:36:56.881Z,27.14
2016-07-25T11:37:56.834Z,27.2
2016-07-25T11:38:56.864Z,27.17
2016-07-25T11:39:56.907Z,27.2
2016-07-25T11:40:56.931Z,27.22
2016-07-25T11:41:56.961Z,27.27
2016-07-25T11:42:56.997Z,27.35
2016-07-25T11:43:57.026Z,27.42
2016-07-25T11:44:57.060Z,27.59
2016-07-25T11:45:57.093Z,27.54
2016-07-25T11:46:57.127Z,27.58
2016-07-25T11:47:57.156Z,27.71
2016-07-25T11:48:57.196Z,27.74
2016-07-25T11:49:57.222Z,27.73
2016-07-25T11:50:57.257Z,27.78
2016-07-25T11:51:57.283Z,27.82
2016-07-25T11:52:57.369Z,27.87
2016-07-25T11:53:57.348Z,27.89
2016-07-25T11:54:58.110Z,28
2016-07-25T11:55:57.417Z,28.07
2016-07-25T11:56:58.162Z,28.1
2016-07-25T11:57:58.193Z,28.05
2016-07-25T11:58:57.517Z,28.07
2016-07-25T11:59:57.549Z,28.1
2016-07-25T12:00:57.588Z,28.14
2016-07-25T12:01:57.610Z,28.2
2016-07-25T12:02:57.647Z,28.32
2016-07-25T12:03:57.678Z,28.49
2016-07-25T12:04:58.432Z,28.39
2016-07-25T12:05:57.745Z,28.49
2016-07-25T12:06:57.795Z,28.56
2016-07-25T12:07:57.811Z,28.59
2016-07-25T12:08:57.845Z,28.59
2016-07-25T12:09:57.892Z,28.62
2016-07-25T12:10:57.909Z,28.69
2016-07-25T12:11:57.946Z,28.7
2016-07-25T12:12:57.992Z,28.62
2016-07-25T12:13:58.014Z,28.67
2016-07-25T12:14:58.045Z,28.63
2016-07-25T12:15:58.078Z,28.67
2016-07-25T12:16:58.111Z,28.67
2016-07-25T12:17:58.144Z,28.81
2016-07-25T12:18:58.176Z,28.82
2016-07-25T12:19:58.210Z,28.76
2016-07-25T12:20:58.244Z,28.78
2016-07-25T12:21:58.278Z,28.79
2016-07-25T12:22:58.346Z,28.84
2016-07-25T12:23:59.054Z,28.78
2016-07-25T12:24:58.374Z,28.91
2016-07-25T12:25:58.408Z,28.84
2016-07-25T12:26:59.154Z,28.84
2016-07-25T12:27:58.479Z,28.79
2016-07-25T12:28:59.225Z,28.86
2016-07-25T12:29:59.252Z,28.94
2016-07-25T12:30:58.589Z,29.01
2016-07-25T12:31:58.611Z,29.07
2016-07-25T12:32:58.647Z,29.14
2016-07-25T12:33:59.386Z,29.16
2016-07-25T12:34:58.707Z,29.26
2016-07-25T12:35:58.744Z,29.27
2016-07-25T12:37:00.211Z,29.32
2016-07-25T12:37:58.819Z,29.32
2016-07-25T12:38:58.843Z,29.27
2016-07-25T12:39:58.898Z,29.32
2016-07-25T12:40:58.910Z,29.34
2016-07-25T12:41:58.946Z,29.35
2016-07-25T12:42:59.693Z,29.29
2016-07-25T12:43:59.722Z,29.31
2016-07-25T12:44:59.044Z,29.32
2016-07-25T12:45:59.079Z,29.32
2016-07-25T12:46:59.118Z,29.34
2016-07-25T12:47:59.148Z,29.29
2016-07-25T12:48:59.889Z,29.27
2016-07-25T12:49:59.244Z,29.27
2016-07-25T12:50:59.956Z,29.38
2016-07-25T12:51:59.279Z,29.32
2016-07-25T12:52:59.314Z,29.45
2016-07-25T12:53:59.351Z,29.41
2016-07-25T12:54:59.432Z,29.45
2016-07-25T12:55:59.416Z,29.31
2016-07-25T12:56:59.447Z,29.5
2016-07-25T12:57:59.496Z,29.34
2016-07-25T12:58:59.529Z,29.45